Afton, Minnesota
Current Conditions -  °F | °C
As of 2:11 AM on Thursday 29 Jan 2015 (Local Time) from K21D Reporting Station
Haze Haze  
Wind Chill: 25°   Ceiling: 500
Heat Index: 32°   Visibility: 4mi
Dew Point: 30°   Wind: 8mph
Humidity: 93%   Direction: 310°NW
Pressure: 29.89"   Gusts: NA
Location:  44.9°N, 92.78°W
Report Text: K21D 290811Z AUTO 31007KT 4SM BR OVC005 00/M01 A2989 RMK AO2
Loading
Personal Weather Stations






























Interactive Weather Map New forecast layout! Learn more

10-Day Weather Forecast

Advertisements
Track Severe Weather on mobile